createdAt,value
2017-10-11T00:01:36.923Z,98.90
2017-10-11T00:04:05.084Z,98.90
2017-10-11T00:06:33.542Z,98.90
2017-10-11T00:09:01.050Z,99.00
2017-10-11T00:11:28.542Z,98.90
2017-10-11T00:13:56.030Z,98.90
2017-10-11T00:16:23.540Z,98.80
2017-10-11T00:18:51.031Z,98.80
2017-10-11T00:21:20.495Z,98.80
2017-10-11T00:23:47.983Z,98.80
2017-10-11T00:26:15.472Z,98.90
2017-10-11T00:28:43.018Z,98.90
2017-10-11T00:31:10.516Z,98.90
2017-10-11T00:33:38.419Z,98.80
2017-10-11T00:38:39.942Z,98.80
2017-10-11T00:41:07.822Z,98.80
2017-10-11T00:43:35.299Z,98.80
2017-10-11T00:46:04.778Z,98.70
2017-10-11T00:48:32.686Z,98.60
2017-10-11T00:51:00.194Z,98.60
2017-10-11T00:53:29.030Z,98.70
2017-10-11T00:55:56.520Z,98.70
2017-10-11T00:58:24.028Z,98.70
2017-10-11T01:00:51.518Z,98.80
2017-10-11T01:03:19.039Z,98.70
2017-10-11T01:05:47.466Z,98.70
2017-10-11T01:08:14.949Z,98.70
2017-10-11T01:10:44.401Z,98.70
2017-10-11T01:13:12.715Z,98.70
2017-10-11T01:15:40.218Z,98.60
2017-10-11T01:18:07.714Z,98.70
2017-10-11T01:20:35.194Z,98.80
2017-10-11T01:23:02.748Z,98.90
2017-10-11T01:25:30.257Z,98.90
2017-10-11T01:27:58.691Z,98.90
2017-10-11T01:30:27.299Z,98.90
2017-10-11T01:32:55.176Z,98.80
2017-10-11T01:35:22.698Z,98.80
2017-10-11T01:37:50.184Z,98.70
2017-10-11T01:40:17.711Z,98.70
2017-10-11T01:42:45.195Z,98.80
2017-10-11T01:45:12.720Z,98.80
2017-10-11T01:47:40.207Z,98.80
2017-10-11T01:50:08.103Z,98.90
2017-10-11T01:52:35.587Z,98.90
2017-10-11T01:55:08.679Z,98.90
2017-10-11T01:57:36.164Z,98.90
2017-10-11T02:00:03.663Z,99.00
2017-10-11T02:02:31.156Z,98.90
2017-10-11T02:04:58.669Z,98.80
2017-10-11T02:07:26.187Z,98.80
2017-10-11T02:09:53.699Z,98.90
2017-10-11T02:12:22.092Z,98.90
2017-10-11T02:14:49.591Z,98.80
2017-10-11T02:17:17.085Z,98.90
2017-10-11T02:19:44.592Z,98.90
2017-10-11T02:22:12.082Z,98.90
2017-10-11T02:24:39.979Z,98.90
2017-10-11T02:27:07.517Z,98.90
2017-10-11T02:29:35.424Z,98.70
2017-10-11T02:32:02.954Z,98.70
2017-10-11T02:34:30.467Z,98.80
2017-10-11T02:36:58.912Z,99.00
2017-10-11T02:39:26.415Z,99.20
2017-10-11T02:41:53.911Z,99.20
2017-10-11T02:44:21.440Z,99.20
2017-10-11T02:46:48.926Z,99.20
2017-10-11T02:49:16.439Z,99.00
2017-10-11T02:51:43.933Z,99.00
2017-10-11T02:54:11.444Z,99.10
2017-10-11T02:56:38.940Z,99.20
2017-10-11T02:59:07.785Z,99.30
2017-10-11T03:01:35.301Z,99.30
2017-10-11T03:04:03.769Z,99.40
2017-10-11T03:06:32.606Z,99.50
2017-10-11T03:09:00.111Z,99.50
2017-10-11T03:11:28.931Z,99.50
2017-10-11T03:13:56.428Z,99.50
2017-10-11T03:16:23.930Z,99.50
2017-10-11T03:18:51.821Z,99.50
2017-10-11T03:21:19.344Z,99.50
2017-10-11T03:23:47.295Z,99.50
2017-10-11T03:26:14.794Z,99.50
2017-10-11T03:28:44.284Z,99.50
2017-10-11T03:31:12.178Z,99.40
2017-10-11T03:33:39.692Z,99.40
2017-10-11T03:36:07.171Z,99.40
2017-10-11T03:38:35.052Z,99.40
2017-10-11T03:41:02.563Z,99.40
2017-10-11T03:43:30.055Z,99.40
2017-10-11T03:45:57.963Z,99.30
2017-10-11T03:48:25.475Z,99.30
2017-10-11T03:50:54.343Z,99.50
2017-10-11T03:53:23.105Z,99.50
2017-10-11T03:55:50.593Z,99.60
2017-10-11T03:58:18.247Z,99.70
2017-10-11T04:00:45.763Z,99.70
2017-10-11T04:03:13.282Z,99.70
2017-10-11T04:05:43.136Z,99.70
2017-10-11T04:08:10.655Z,99.70
2017-10-11T04:10:38.635Z,99.70
2017-10-11T04:13:06.530Z,99.70
2017-10-11T04:15:34.023Z,99.70
2017-10-11T04:18:01.539Z,99.60
2017-10-11T04:20:29.023Z,99.50
2017-10-11T04:22:56.535Z,99.50
2017-10-11T04:25:24.030Z,99.40
2017-10-11T04:27:51.532Z,99.40
2017-10-11T04:30:19.020Z,99.40
2017-10-11T04:32:46.532Z,99.30
2017-10-11T04:35:14.019Z,99.40
2017-10-11T04:37:41.932Z,99.00
2017-10-11T04:40:09.419Z,99.00
2017-10-11T04:42:36.979Z,99.10
2017-10-11T04:45:04.474Z,99.20
2017-10-11T04:47:31.991Z,99.20
2017-10-11T04:49:59.499Z,99.20
2017-10-11T04:52:27.012Z,99.20
2017-10-11T04:54:54.503Z,99.20
2017-10-11T04:57:22.402Z,99.10
2017-10-11T04:59:49.901Z,99.10
2017-10-11T05:02:17.818Z,99.00
2017-10-11T05:04:45.303Z,99.00
2017-10-11T05:07:13.640Z,98.90
2017-10-11T05:09:41.747Z,99.00
2017-10-11T05:12:11.289Z,99.00
2017-10-11T05:14:38.766Z,99.00
2017-10-11T05:17:06.422Z,98.90
2017-10-11T05:19:35.250Z,98.80
2017-10-11T05:22:02.760Z,98.80
2017-10-11T05:24:30.646Z,98.70
2017-10-11T05:26:58.178Z,98.70
2017-10-11T05:29:25.677Z,98.70
2017-10-11T05:31:53.207Z,98.60
2017-10-11T05:34:22.048Z,98.40
2017-10-11T05:36:49.698Z,98.30
2017-10-11T05:39:17.183Z,98.40
2017-10-11T05:41:44.691Z,98.40
2017-10-11T05:44:12.193Z,98.40
2017-10-11T05:46:39.704Z,98.10
2017-10-11T05:49:08.423Z,98.30
2017-10-11T05:51:35.940Z,98.30
2017-10-11T05:54:04.465Z,98.30
2017-10-11T05:56:31.987Z,98.30
2017-10-11T05:58:59.870Z,97.90
2017-10-11T06:01:27.399Z,98.00
2017-10-11T06:03:55.300Z,98.00
2017-10-11T06:06:22.783Z,98.00
2017-10-11T06:08:50.291Z,98.00
2017-10-11T06:11:18.171Z,97.80
2017-10-11T06:13:45.696Z,97.80
2017-10-11T06:16:13.220Z,97.90
2017-10-11T06:18:42.695Z,97.80
2017-10-11T06:21:10.225Z,97.30
2017-10-11T06:23:37.735Z,97.40
2017-10-11T06:26:05.232Z,97.20
2017-10-11T06:28:32.767Z,97.30
2017-10-11T06:31:00.268Z,97.00
2017-10-11T06:33:27.791Z,96.90
2017-10-11T06:35:55.278Z,96.80
2017-10-11T06:38:25.156Z,96.90
2017-10-11T06:40:52.638Z,96.90
2017-10-11T06:43:20.152Z,96.80
2017-10-11T06:45:47.655Z,96.30
2017-10-11T06:48:15.580Z,96.30
2017-10-11T06:50:44.054Z,96.30
2017-10-11T06:53:11.570Z,96.10
2017-10-11T06:55:39.088Z,96.00
2017-10-11T06:58:06.606Z,96.00
2017-10-11T07:00:34.493Z,95.70
2017-10-11T07:03:06.027Z,95.70
2017-10-11T07:05:34.871Z,95.50
2017-10-11T07:08:02.391Z,95.50
2017-10-11T07:10:29.882Z,95.10
2017-10-11T07:12:57.375Z,95.30
2017-10-11T07:15:25.285Z,94.70
2017-10-11T07:17:52.835Z,94.70
2017-10-11T07:20:20.359Z,94.70
2017-10-11T07:22:47.851Z,95.20
2017-10-11T07:25:15.343Z,94.60
2017-10-11T07:27:44.791Z,94.50
2017-10-11T07:30:12.692Z,94.20
2017-10-11T07:32:40.200Z,94.20
2017-10-11T07:35:08.275Z,94.30
2017-10-11T07:37:35.778Z,95.00
2017-10-11T07:40:05.285Z,93.80
2017-10-11T07:42:33.127Z,94.00
2017-10-11T07:45:01.439Z,93.90
2017-10-11T07:47:28.945Z,94.20
2017-10-11T07:49:56.831Z,93.00
2017-10-11T07:52:25.339Z,93.00
2017-10-11T07:54:52.853Z,92.80
2017-10-11T07:57:20.738Z,92.10
2017-10-11T07:59:48.280Z,92.10
2017-10-11T08:02:16.166Z,91.60
2017-10-11T08:04:43.680Z,91.60
2017-10-11T08:07:11.171Z,91.40
2017-10-11T08:09:39.079Z,91.40
2017-10-11T08:12:06.609Z,91.40
2017-10-11T08:14:34.121Z,91.20
2017-10-11T08:17:01.639Z,90.60
2017-10-11T08:19:29.133Z,91.00
2017-10-11T08:21:56.627Z,90.60
2017-10-11T08:24:26.154Z,91.00
2017-10-11T08:26:55.392Z,91.00
2017-10-11T08:29:23.235Z,90.80
2017-10-11T08:31:52.915Z,90.60
2017-10-11T08:34:20.420Z,91.10
2017-10-11T08:36:49.879Z,90.80
2017-10-11T08:39:19.307Z,90.80
2017-10-11T08:41:46.814Z,90.80
2017-10-11T08:44:14.299Z,90.00
2017-10-11T08:46:42.185Z,89.90
2017-10-11T08:49:09.715Z,89.90
2017-10-11T08:51:37.659Z,89.70
2017-10-11T08:54:05.194Z,89.70
2017-10-11T08:56:32.696Z,89.30
2017-10-11T08:59:00.591Z,89.90
2017-10-11T09:01:28.675Z,89.90
2017-10-11T09:03:56.215Z,90.00
2017-10-11T09:06:25.443Z,90.10
2017-10-11T09:08:54.955Z,90.40
2017-10-11T09:11:23.146Z,90.60
2017-10-11T09:13:50.638Z,89.40
2017-10-11T09:16:18.535Z,90.10
2017-10-11T09:18:46.938Z,90.20
2017-10-11T09:21:14.459Z,89.80
2017-10-11T09:23:42.870Z,89.80
2017-10-11T09:26:11.312Z,90.20
2017-10-11T09:28:39.055Z,90.20
2017-10-11T09:31:06.535Z,90.40
2017-10-11T09:33:34.042Z,90.10
2017-10-11T09:36:01.532Z,89.40
2017-10-11T09:38:30.032Z,89.80
2017-10-11T09:40:57.932Z,89.90
2017-10-11T09:43:25.816Z,90.30
2017-10-11T09:45:53.323Z,90.30
2017-10-11T09:48:21.227Z,90.20
2017-10-11T09:50:50.472Z,90.20
2017-10-11T09:53:19.283Z,90.70
2017-10-11T09:55:46.774Z,90.70
2017-10-11T09:58:14.819Z,91.10
2017-10-11T10:00:42.396Z,91.30
2017-10-11T10:03:10.489Z,90.70
2017-10-11T10:05:46.218Z,91.20
2017-10-11T10:08:13.713Z,90.60
2017-10-11T10:10:41.217Z,90.80
2017-10-11T10:13:08.711Z,90.90
2017-10-11T10:15:36.232Z,90.70
2017-10-11T10:18:03.748Z,90.80
2017-10-11T10:20:31.297Z,90.50
2017-10-11T10:22:58.814Z,89.70
2017-10-11T10:25:26.309Z,90.00
2017-10-11T10:27:53.796Z,89.60
2017-10-11T10:30:21.706Z,88.80
2017-10-11T10:32:49.198Z,88.80
2017-10-11T10:37:49.026Z,88.50
2017-10-11T10:40:17.279Z,89.00
2017-10-11T10:42:44.780Z,88.50
2017-10-11T10:45:12.679Z,87.10
2017-10-11T10:47:40.193Z,87.10
2017-10-11T10:50:07.695Z,85.70
2017-10-11T10:52:35.195Z,85.70
2017-10-11T10:55:02.683Z,84.30
2017-10-11T10:57:30.575Z,85.20
2017-10-11T10:59:59.007Z,85.20
2017-10-11T11:02:26.520Z,84.70
2017-10-11T11:04:56.884Z,84.90
2017-10-11T11:07:24.370Z,83.80
2017-10-11T11:09:51.853Z,85.00
2017-10-11T11:12:19.358Z,84.00
2017-10-11T11:14:49.289Z,83.80
2017-10-11T11:17:17.720Z,83.80
2017-10-11T11:19:45.205Z,83.30
2017-10-11T11:22:14.477Z,83.90
2017-10-11T11:24:41.996Z,84.00
2017-10-11T11:27:09.526Z,84.00
2017-10-11T11:29:37.027Z,83.90
2017-10-11T11:32:04.900Z,83.60
2017-10-11T11:34:32.388Z,83.60
2017-10-11T11:36:59.907Z,83.90
2017-10-11T11:39:27.792Z,83.50
2017-10-11T11:41:55.282Z,83.50
2017-10-11T11:44:23.715Z,83.00
2017-10-11T11:46:52.499Z,82.60
2017-10-11T11:49:20.396Z,82.40
2017-10-11T11:51:48.795Z,82.40
2017-10-11T11:54:16.298Z,83.30
2017-10-11T11:56:44.220Z,82.80
2017-10-11T11:59:11.711Z,82.80
2017-10-11T12:01:39.221Z,83.40
2017-10-11T12:04:06.706Z,82.50
2017-10-11T12:06:36.184Z,82.80
2017-10-11T12:09:03.675Z,83.50
2017-10-11T12:11:31.185Z,83.10
2017-10-11T12:13:58.684Z,82.20
2017-10-11T12:16:27.824Z,82.00
2017-10-11T12:18:55.706Z,82.90
2017-10-11T12:21:24.768Z,82.90
2017-10-11T12:23:52.260Z,82.10
2017-10-11T12:26:19.776Z,82.10
2017-10-11T12:28:47.267Z,82.60
2017-10-11T12:31:15.168Z,82.60
2017-10-11T12:33:42.683Z,82.60
2017-10-11T12:36:10.580Z,82.40
2017-10-11T12:38:38.573Z,82.50
2017-10-11T12:41:06.108Z,82.80
2017-10-11T12:43:33.884Z,82.90
2017-10-11T12:46:03.438Z,82.30
2017-10-11T12:48:30.968Z,82.70
2017-10-11T12:50:59.887Z,82.60
2017-10-11T12:53:31.875Z,82.40
2017-10-11T13:59:11.987Z,84.00
2017-10-11T14:01:40.192Z,83.70
2017-10-11T14:04:10.058Z,84.10
2017-10-11T14:06:37.572Z,84.10
2017-10-11T14:09:06.047Z,84.10
2017-10-11T14:11:34.447Z,83.80
2017-10-11T14:14:02.379Z,84.10
2017-10-11T14:16:29.868Z,84.10
2017-10-11T14:18:59.409Z,84.90
2017-10-11T14:21:26.891Z,84.90
2017-10-11T14:23:54.987Z,84.50
2017-10-11T14:26:23.255Z,84.60
2017-10-11T14:28:51.547Z,84.60
2017-10-11T14:31:19.955Z,85.60
2017-10-11T14:33:47.460Z,85.70
2017-10-11T14:36:14.976Z,86.20
2017-10-11T14:38:44.703Z,86.10
2017-10-11T14:41:14.107Z,85.70
2017-10-11T14:43:41.758Z,86.30
2017-10-11T14:46:09.250Z,85.90
2017-10-11T14:48:36.755Z,86.10
2017-10-11T14:51:06.234Z,86.10
2017-10-11T14:53:34.369Z,86.10
2017-10-11T14:56:01.852Z,85.90
2017-10-11T14:58:29.379Z,85.60
2017-10-11T15:00:56.868Z,85.90
2017-10-11T15:03:24.376Z,85.70
2017-10-11T15:05:51.882Z,85.60
2017-10-11T15:08:21.737Z,85.80
2017-10-11T15:10:49.238Z,86.50
2017-10-11T15:13:16.743Z,86.30
2017-10-11T15:15:45.119Z,86.70
2017-10-11T15:18:12.635Z,86.70
2017-10-11T15:20:40.752Z,86.60
2017-10-11T15:23:08.631Z,86.30
2017-10-11T15:25:36.143Z,86.30
2017-10-11T15:28:04.587Z,86.80
2017-10-11T15:30:32.087Z,86.80
2017-10-11T15:32:59.579Z,86.00
2017-10-11T15:35:27.470Z,86.40
2017-10-11T15:37:56.327Z,86.40
2017-10-11T15:40:25.179Z,86.40
2017-10-11T15:42:52.670Z,86.50
2017-10-11T15:45:20.164Z,86.80
2017-10-11T15:47:47.647Z,87.40
2017-10-11T15:50:15.154Z,87.40
2017-10-11T15:52:43.148Z,86.60
2017-10-11T15:55:10.651Z,86.60
2017-10-11T15:57:38.156Z,86.50
2017-10-11T16:00:06.592Z,86.70
2017-10-11T16:02:35.328Z,87.10
2017-10-11T16:05:02.847Z,86.60
2017-10-11T16:07:31.833Z,86.90
2017-10-11T16:09:59.344Z,86.90
2017-10-11T16:12:26.831Z,87.20
2017-10-11T16:14:54.317Z,87.00
2017-10-11T16:17:21.822Z,87.50
2017-10-11T16:19:49.359Z,87.20
2017-10-11T16:22:17.596Z,87.00
2017-10-11T16:24:45.911Z,86.90
2017-10-11T16:27:13.783Z,86.90
2017-10-11T16:29:41.311Z,86.90
2017-10-11T16:32:08.791Z,87.00
2017-10-11T16:34:36.550Z,87.30
2017-10-11T16:37:04.524Z,87.10
2017-10-11T16:39:32.857Z,87.50
2017-10-11T16:42:00.335Z,87.30
2017-10-11T16:44:28.128Z,87.00
2017-10-11T16:46:56.568Z,86.50
2017-10-11T16:49:27.022Z,86.50
2017-10-11T16:51:55.870Z,87.00
2017-10-11T16:54:23.366Z,87.00
2017-10-11T16:56:51.273Z,86.90
2017-10-11T16:59:18.768Z,86.90
2017-10-11T17:01:46.263Z,86.60
2017-10-11T17:04:14.167Z,87.10
2017-10-11T17:06:41.667Z,87.10
2017-10-11T17:09:12.101Z,87.20
2017-10-11T17:11:39.982Z,86.20
2017-10-11T17:14:07.483Z,86.30
2017-10-11T17:16:34.976Z,86.70
2017-10-11T17:19:02.463Z,87.10
2017-10-11T17:21:30.375Z,87.00
2017-10-11T17:23:57.870Z,87.00
2017-10-11T17:26:25.747Z,87.20
2017-10-11T17:28:53.647Z,87.50
2017-10-11T17:31:21.143Z,87.50
2017-10-11T17:33:48.664Z,87.30
2017-10-11T17:36:16.547Z,87.20
2017-10-11T17:38:44.065Z,87.50
2017-10-11T17:41:11.580Z,87.50
2017-10-11T17:43:39.060Z,87.80
2017-10-11T17:46:06.545Z,88.10
2017-10-11T17:48:34.051Z,88.10
2017-10-11T17:51:02.481Z,88.00
2017-10-11T17:53:29.992Z,88.10
2017-10-11T17:55:57.470Z,88.00
2017-10-11T17:58:26.926Z,88.60
2017-10-11T18:00:54.427Z,88.70
2017-10-11T18:03:22.631Z,88.70
2017-10-11T18:05:50.503Z,88.90
2017-10-11T18:08:20.874Z,88.90
2017-10-11T18:10:48.382Z,89.20
2017-10-11T18:13:17.275Z,88.80
2017-10-11T18:15:46.300Z,89.30
2017-10-11T18:18:13.788Z,89.40
2017-10-11T18:20:42.135Z,89.00
2017-10-11T18:23:11.331Z,89.40
2017-10-11T18:25:39.185Z,89.60
2017-10-11T18:28:06.687Z,89.20
2017-10-11T18:30:34.517Z,89.10
2017-10-11T18:33:02.567Z,89.60
2017-10-11T18:35:30.107Z,89.60
2017-10-11T18:37:58.327Z,89.40
2017-10-11T18:40:26.767Z,89.20
2017-10-11T18:42:55.481Z,89.50
2017-10-11T18:45:23.010Z,89.50
2017-10-11T18:47:50.940Z,89.80
2017-10-11T18:50:18.747Z,89.80
2017-10-11T18:52:48.465Z,90.30
2017-10-11T18:55:17.183Z,90.30
2017-10-11T18:57:44.751Z,90.50
2017-10-11T19:00:12.259Z,90.50
2017-10-11T19:02:39.817Z,90.60
2017-10-11T19:05:07.349Z,90.80
2017-10-11T19:07:34.915Z,91.00
2017-10-11T19:10:03.382Z,90.00
2017-10-11T19:12:30.940Z,90.50
2017-10-11T19:14:58.478Z,90.70
2017-10-11T19:17:26.899Z,91.10
2017-10-11T19:19:55.744Z,91.50
2017-10-11T19:22:23.316Z,91.50
2017-10-11T19:24:51.518Z,91.70
2017-10-11T19:27:19.053Z,92.10
2017-10-11T19:29:47.304Z,92.30
2017-10-11T19:32:14.828Z,92.30
2017-10-11T19:34:43.520Z,92.40
2017-10-11T19:37:11.038Z,92.40
2017-10-11T19:39:38.553Z,92.30
2017-10-11T19:42:06.768Z,92.60
2017-10-11T19:44:34.286Z,92.70
2017-10-11T19:47:02.855Z,92.60
2017-10-11T19:49:31.327Z,92.70
2017-10-11T19:51:59.245Z,92.90
2017-10-11T19:54:26.827Z,92.90
2017-10-11T19:56:54.353Z,92.90
2017-10-11T19:59:21.909Z,92.90
2017-10-11T20:01:49.462Z,93.20
2017-10-11T20:04:17.047Z,93.40
2017-10-11T20:06:44.585Z,93.40
2017-10-11T20:09:12.303Z,93.60
2017-10-11T20:11:41.035Z,93.60
2017-10-11T20:14:09.282Z,93.60
2017-10-11T20:16:37.844Z,93.50
2017-10-11T20:19:05.368Z,93.70
2017-10-11T20:21:32.877Z,93.70
2017-10-11T20:24:00.803Z,94.10
2017-10-11T20:26:28.357Z,94.10
2017-10-11T20:28:55.903Z,94.10
2017-10-11T20:31:23.428Z,94.10
2017-10-11T20:33:51.892Z,94.00
2017-10-11T20:36:19.433Z,94.00
2017-10-11T20:38:47.243Z,94.00
2017-10-11T20:41:14.760Z,94.00
2017-10-11T20:43:42.277Z,94.00
2017-10-11T20:46:10.736Z,94.20
2017-10-11T20:48:38.308Z,94.10
2017-10-11T20:51:07.045Z,94.20
2017-10-11T20:53:34.540Z,94.20
2017-10-11T20:56:06.436Z,93.90
2017-10-11T20:58:33.947Z,93.90
2017-10-11T21:01:01.877Z,92.90
2017-10-11T21:03:29.422Z,92.90
2017-10-11T21:05:56.926Z,92.60
2017-10-11T21:08:26.390Z,92.60
2017-10-11T21:10:54.909Z,92.90
2017-10-11T21:13:22.519Z,92.90
2017-10-11T21:15:50.079Z,92.60
2017-10-11T21:18:17.882Z,92.00
2017-10-11T21:20:45.440Z,91.90
2017-10-11T21:23:12.986Z,92.10
2017-10-11T21:25:43.027Z,92.00
2017-10-11T21:28:10.967Z,91.90
2017-10-11T21:30:39.110Z,91.90
2017-10-11T21:33:08.643Z,91.70
2017-10-11T21:35:36.158Z,92.20
2017-10-11T21:38:03.683Z,92.30
2017-10-11T21:40:31.671Z,91.90
2017-10-11T21:42:59.616Z,91.50
2017-10-11T21:45:27.130Z,91.50
2017-10-11T21:47:54.679Z,91.20
2017-10-11T21:50:23.227Z,91.30
2017-10-11T21:52:51.147Z,91.60
2017-10-11T21:55:18.668Z,91.60
2017-10-11T21:57:49.216Z,92.00
2017-10-11T22:00:16.758Z,92.00
2017-10-11T22:02:44.680Z,92.00
2017-10-11T22:05:12.199Z,92.00
2017-10-11T22:07:43.313Z,92.10
2017-10-11T22:10:11.578Z,92.40
2017-10-11T22:12:39.103Z,92.40
2017-10-11T22:15:06.659Z,92.20
2017-10-11T22:17:34.206Z,92.20
2017-10-11T22:20:01.746Z,91.90
2017-10-11T22:22:29.280Z,92.20
2017-10-11T22:24:56.801Z,92.20
2017-10-11T22:27:24.381Z,92.40
2017-10-11T22:29:52.880Z,92.50
2017-10-11T22:32:20.413Z,92.40
2017-10-11T22:34:47.983Z,92.60
2017-10-11T22:37:15.498Z,92.80
2017-10-11T22:39:43.023Z,92.90
2017-10-11T22:42:12.939Z,93.30
2017-10-11T22:44:40.878Z,93.20
2017-10-11T22:47:08.432Z,93.20
2017-10-11T22:49:35.966Z,93.50
2017-10-11T22:52:03.571Z,93.50
2017-10-11T22:54:31.098Z,93.60
2017-10-11T22:56:58.623Z,93.80
2017-10-11T22:59:26.527Z,93.90
2017-10-11T23:01:55.722Z,93.90
2017-10-11T23:04:23.265Z,94.00
2017-10-11T23:06:50.824Z,94.10
2017-10-11T23:09:18.363Z,94.40
2017-10-11T23:11:46.267Z,94.50
2017-10-11T23:14:13.778Z,94.50
2017-10-11T23:16:41.728Z,95.00
2017-10-11T23:19:09.243Z,95.00
2017-10-11T23:21:36.801Z,95.40
2017-10-11T23:24:05.446Z,95.20
2017-10-11T23:26:34.778Z,95.20
2017-10-11T23:29:03.889Z,95.50
2017-10-11T23:31:33.323Z,95.60
2017-10-11T23:34:00.836Z,95.80
2017-10-11T23:36:28.382Z,95.90
2017-10-11T23:38:56.274Z,96.10
2017-10-11T23:41:23.818Z,96.10
2017-10-11T23:43:51.339Z,96.10
2017-10-11T23:46:18.813Z,96.20
2017-10-11T23:48:47.319Z,96.30
2017-10-11T23:51:14.818Z,96.30
2017-10-11T23:53:42.316Z,96.40
2017-10-11T23:56:09.835Z,96.50
2017-10-11T23:58:37.489Z,96.60
